台北 の空港の天気 - METARとTAF

台湾桃園国際空港 ( RCTP / TPE ) - 台湾 台北市
飛行場実況気象(Metar)
観測時間01/19 05:30 CST (01/18 21:30 UTC)
風向・風速北北東 8m/s
視程8000m
天気現象弱い雨
全天の4割程度の雲 雲底高度 120m
全天の8割程度の雲 雲底高度 180m
全天の8割程度の雲 雲底高度 370m
気温17℃
湿度94%
気圧1019hPa
METARRCTP 182130Z 03016KT 8000 -RA SCT004 BKN006 BKN012 17/16 Q1019 NOSIG RMK A3011
過去の天気等 Google飛行場航空写真 Wunderground天気予報

過去48時間のMETAR

飛行場予報(TAF)
発表時間: 1/19 01:05 CST (1/18 17:05 UTC)
予報対象時間: 19日2時 CST ~ 20日8時 CST
風向・風速北東 9m/s
視程4,500m
天気現象もや
全天の4割程度の雲 雲底高度 120m
全天の8割程度の雲 雲底高度 240m
全天の8割程度の雲 雲底高度 460m
19日2時 CST ~ 19日8時 CST に一時的に
風向・風速北北東 6m/s
視程2,800m
天気現象雨 もや
全天の4割程度の雲 雲底高度 30m
全天の8割程度の雲 雲底高度 120m
全天の8割程度の雲 雲底高度 300m
19日10時 CST ~ 19日12時 CST に徐々に
視程7,000m
全天の4割程度の雲 雲底高度 240m
全天の8割程度の雲 雲底高度 490m
全天の8割程度の雲 雲底高度 1,070m
19日14時 CST ~ 19日20時 CST に一時的に
風向・風速北東 12m/s
少しの雲 雲底高度 460m
全天の8割程度の雲 雲底高度 980m
全天の8割程度の雲 雲底高度 1,520m
19日20時 CST ~ 19日22時 CST に徐々に
風向・風速東北東 6m/s
少しの雲 雲底高度 550m
全天の8割程度の雲 雲底高度 980m
全天の8割程度の雲 雲底高度 1,830m
TAF COR RCTP 181705Z 1818/1924 05018KT 4500 BR SCT004 BKN008 BKN015
TEMPO 1818/1824 03012KT 2800 RA BR SCT001 BKN004 BKN010
BECMG 1902/1904 7000 SCT008 BKN016 BKN035
TEMPO 1906/1912 04023KT FEW015 BKN032 BKN050
BECMG 1912/1914 07012KT FEW018 BKN032 BKN060